createdAt,value
2019-02-19T00:02:22.682Z,100894.23
2019-02-19T00:04:51.095Z,100895.97
2019-02-19T00:07:19.498Z,100894.59
2019-02-19T00:09:47.918Z,100894.75
2019-02-19T00:12:16.337Z,100894.03
2019-02-19T00:14:44.756Z,100900.94
2019-02-19T00:17:13.167Z,100899.57
2019-02-19T00:19:41.640Z,100893.33
2019-02-19T00:22:10.072Z,100891.90
2019-02-19T00:24:38.494Z,100894.91
2019-02-19T00:27:06.915Z,100891.14
2019-02-19T00:29:35.333Z,100891.55
2019-02-19T00:32:03.751Z,100890.06
2019-02-19T00:34:32.153Z,100891.40
2019-02-19T00:37:00.553Z,100891.45
2019-02-19T00:39:28.988Z,100896.67
2019-02-19T00:41:57.392Z,100892.62
2019-02-19T00:44:25.787Z,100891.55
2019-02-19T00:46:54.258Z,100892.93
2019-02-19T00:49:22.725Z,100892.02
2019-02-19T00:51:51.164Z,100899.81
2019-02-19T00:54:19.618Z,100905.00
2019-02-19T00:56:48.034Z,100903.27
2019-02-19T00:59:16.446Z,100896.92
2019-02-19T01:01:44.948Z,100904.50
2019-02-19T01:04:13.436Z,100910.84
2019-02-19T01:06:41.834Z,100912.25
2019-02-19T01:09:10.705Z,100915.41
2019-02-19T01:11:39.190Z,100914.34
2019-02-19T01:14:07.667Z,100919.05
2019-02-19T01:16:36.149Z,100921.34
2019-02-19T01:19:04.715Z,100922.41
2019-02-19T01:21:33.125Z,100916.67
2019-02-19T01:24:01.551Z,100918.30
2019-02-19T01:26:29.952Z,100924.48
2019-02-19T01:28:58.463Z,100924.59
2019-02-19T01:31:26.875Z,100924.48
2019-02-19T01:33:55.274Z,100921.08
2019-02-19T01:36:23.746Z,100921.08
2019-02-19T01:38:52.175Z,100919.81
2019-02-19T01:41:20.635Z,100920.78
2019-02-19T01:43:49.101Z,100918.19
2019-02-19T01:46:17.512Z,100929.88
2019-02-19T01:48:45.897Z,100933.77
2019-02-19T01:51:14.471Z,100930.31
2019-02-19T01:53:42.866Z,100928.96
2019-02-19T01:56:11.281Z,100928.85
2019-02-19T01:58:39.677Z,100927.63
2019-02-19T02:01:08.089Z,100927.38
2019-02-19T02:03:36.500Z,100931.03
2019-02-19T02:06:05.054Z,100928.16
2019-02-19T02:08:33.453Z,100927.83
2019-02-19T02:11:01.861Z,100920.98
2019-02-19T02:13:30.258Z,100923.95
2019-02-19T02:15:58.683Z,100923.27
2019-02-19T02:18:27.078Z,100915.62
2019-02-19T02:20:55.560Z,100917.71
2019-02-19T02:23:23.957Z,100917.16
2019-02-19T02:25:52.381Z,100916.50
2019-02-19T02:28:20.922Z,100921.86
2019-02-19T02:30:49.324Z,100920.04
2019-02-19T02:33:17.750Z,100927.88
2019-02-19T02:35:46.145Z,100923.80
2019-02-19T02:38:14.574Z,100924.63
2019-02-19T02:40:42.962Z,100922.83
2019-02-19T02:43:11.359Z,100927.88
2019-02-19T02:45:39.781Z,100930.17
2019-02-19T02:48:08.196Z,100932.15
2019-02-19T02:50:36.637Z,100930.62
2019-02-19T02:53:05.045Z,100933.50
2019-02-19T02:55:33.473Z,100935.05
2019-02-19T02:58:01.874Z,100922.93
2019-02-19T03:00:30.306Z,100918.63
2019-02-19T03:02:58.715Z,100929.30
2019-02-19T03:05:27.146Z,100922.67
2019-02-19T03:07:57.179Z,100927.35
2019-02-19T03:10:25.582Z,100929.16
2019-02-19T03:12:54.004Z,100932.19
2019-02-19T03:15:22.474Z,100931.25
2019-02-19T03:17:50.914Z,100935.86
2019-02-19T03:20:19.323Z,100937.16
2019-02-19T03:22:47.757Z,100935.86
2019-02-19T03:25:16.168Z,100939.22
2019-02-19T03:27:44.593Z,100943.75
2019-02-19T03:30:13.096Z,100949.78
2019-02-19T03:32:41.487Z,100947.27
2019-02-19T03:35:09.909Z,100943.91
2019-02-19T03:37:38.339Z,100949.00
2019-02-19T03:40:07.979Z,100946.57
2019-02-19T03:42:36.523Z,100946.73
2019-02-19T03:45:07.069Z,100945.37
2019-02-19T03:47:35.482Z,100953.42
2019-02-19T03:50:05.244Z,100434.65
2019-02-19T03:52:33.658Z,100960.66
2019-02-19T03:55:02.194Z,100953.39
2019-02-19T03:57:30.789Z,100958.89
2019-02-19T03:59:59.274Z,100960.05
2019-02-19T04:02:27.742Z,100961.65
2019-02-19T04:04:56.234Z,100962.84
2019-02-19T04:07:24.641Z,100961.12
2019-02-19T04:09:53.069Z,100962.36
2019-02-19T04:12:21.466Z,100959.41
2019-02-19T04:14:49.894Z,100967.41
2019-02-19T04:17:18.303Z,100972.50
2019-02-19T04:19:46.726Z,100973.70
2019-02-19T04:22:15.141Z,100980.39
2019-02-19T04:24:43.563Z,100984.98
2019-02-19T04:27:11.970Z,100983.59
2019-02-19T04:29:40.384Z,100981.88
2019-02-19T04:32:08.815Z,100985.23
2019-02-19T04:34:37.250Z,100984.70
2019-02-19T04:37:05.669Z,100990.52
2019-02-19T04:39:34.077Z,100990.39
2019-02-19T04:42:02.497Z,100994.14
2019-02-19T04:44:30.904Z,100989.53
2019-02-19T04:46:59.396Z,100988.55
2019-02-19T04:49:27.801Z,100984.28
2019-02-19T04:51:56.232Z,100988.50
2019-02-19T04:54:24.650Z,100995.69
2019-02-19T04:56:53.062Z,100997.33
2019-02-19T04:59:21.480Z,101001.19
2019-02-19T05:01:49.891Z,100995.23
2019-02-19T05:04:18.322Z,100996.05
2019-02-19T05:06:46.748Z,100987.97
2019-02-19T05:09:15.168Z,100997.69
2019-02-19T05:11:43.579Z,101002.87
2019-02-19T05:14:12.000Z,101006.59
2019-02-19T05:16:41.177Z,101007.88
2019-02-19T05:19:09.938Z,101008.23
2019-02-19T05:21:38.337Z,101004.42
2019-02-19T05:24:06.949Z,101011.23
2019-02-19T05:26:35.358Z,101010.88
2019-02-19T05:29:03.756Z,101007.96
2019-02-19T05:31:32.184Z,101005.50
2019-02-19T05:34:00.592Z,101007.27
2019-02-19T05:36:29.032Z,101014.86
2019-02-19T05:38:57.433Z,101013.34
2019-02-19T05:41:25.874Z,101017.66
2019-02-19T05:43:54.250Z,101019.39
2019-02-19T05:46:22.659Z,101012.16
2019-02-19T05:48:54.032Z,101008.30
2019-02-19T05:51:22.429Z,101013.71
2019-02-19T05:53:50.858Z,101020.16
2019-02-19T05:56:19.268Z,101015.07
2019-02-19T05:58:47.673Z,101022.80
2019-02-19T06:01:16.095Z,101023.66
2019-02-19T06:03:44.515Z,101032.98
2019-02-19T06:06:12.925Z,101028.70
2019-02-19T06:08:41.322Z,101031.25
2019-02-19T06:11:09.745Z,101025.70
2019-02-19T06:13:38.144Z,101020.70
2019-02-19T06:16:06.569Z,101028.79
2019-02-19T06:18:34.969Z,101035.98
2019-02-19T06:21:03.390Z,101038.06
2019-02-19T06:23:31.883Z,101038.48
2019-02-19T06:26:00.301Z,101050.34
2019-02-19T06:28:28.720Z,101043.98
2019-02-19T06:30:57.131Z,101045.02
2019-02-19T06:33:25.599Z,101050.42
2019-02-19T06:35:54.018Z,101061.06
2019-02-19T06:38:22.493Z,101060.61
2019-02-19T06:40:50.995Z,101066.61
2019-02-19T06:43:19.401Z,101072.52
2019-02-19T06:45:47.821Z,101071.61
2019-02-19T06:48:16.236Z,101073.20
2019-02-19T06:50:44.646Z,101085.02
2019-02-19T06:53:13.049Z,101081.03
2019-02-19T06:55:41.478Z,101085.77
2019-02-19T06:58:09.873Z,101087.11
2019-02-19T07:00:38.280Z,101087.52
2019-02-19T07:03:24.503Z,101094.75
2019-02-19T07:05:52.933Z,101098.70
2019-02-19T07:08:21.340Z,101100.06
2019-02-19T07:10:50.137Z,101105.06
2019-02-19T07:13:18.538Z,101115.34
2019-02-19T07:15:47.022Z,101113.61
2019-02-19T07:18:15.436Z,101123.02
2019-02-19T07:20:43.854Z,101130.20
2019-02-19T07:23:12.260Z,101131.43
2019-02-19T07:25:40.685Z,101130.88
2019-02-19T07:28:09.109Z,101139.02
2019-02-19T07:30:37.520Z,101139.16
2019-02-19T07:33:05.955Z,101147.25
2019-02-19T07:35:34.365Z,101142.52
2019-02-19T07:38:02.840Z,101142.52
2019-02-19T07:40:31.266Z,101146.30
2019-02-19T07:42:59.688Z,101153.52
2019-02-19T07:45:28.108Z,101155.30
2019-02-19T07:47:56.541Z,101151.89
2019-02-19T07:50:24.965Z,101160.03
2019-02-19T07:52:53.365Z,101171.20
2019-02-19T07:55:21.790Z,101168.30
2019-02-19T07:57:50.194Z,101167.06
2019-02-19T08:00:18.606Z,101167.11
2019-02-19T08:02:47.035Z,101174.03
2019-02-19T08:05:15.498Z,101178.80
2019-02-19T08:07:43.933Z,101183.13
2019-02-19T08:10:12.674Z,101183.13
2019-02-19T08:12:41.097Z,101184.80
2019-02-19T08:15:11.054Z,101193.77
2019-02-19T08:17:39.542Z,101190.02
2019-02-19T08:20:15.429Z,101199.80
2019-02-19T08:22:39.595Z,101198.08
2019-02-19T08:25:08.159Z,101203.63
2019-02-19T08:27:36.572Z,101204.44
2019-02-19T08:30:07.437Z,101201.81
2019-02-19T08:32:35.860Z,101208.59
2019-02-19T08:35:05.023Z,101211.05
2019-02-19T08:37:33.438Z,101211.41
2019-02-19T08:40:01.868Z,101210.13
2019-02-19T08:42:30.346Z,101213.49
2019-02-19T08:44:58.811Z,101217.00
2019-02-19T08:47:27.232Z,101207.63
2019-02-19T08:49:55.633Z,101211.41
2019-02-19T08:52:24.066Z,101214.50
2019-02-19T08:54:52.478Z,101216.59
2019-02-19T08:57:20.951Z,101214.95
2019-02-19T08:59:49.390Z,101216.31
2019-02-19T09:02:17.880Z,101217.36
2019-02-19T09:04:46.294Z,101219.13
2019-02-19T09:07:14.703Z,101219.23
2019-02-19T09:09:43.132Z,101224.49
2019-02-19T09:12:11.680Z,101223.30
2019-02-19T09:14:40.046Z,101225.95
2019-02-19T09:17:08.450Z,101227.36
2019-02-19T09:19:36.936Z,101237.08
2019-02-19T09:22:05.407Z,101229.93
2019-02-19T09:24:33.828Z,101234.80
2019-02-19T09:27:02.235Z,101236.28
2019-02-19T09:29:30.662Z,101226.58
2019-02-19T09:31:59.078Z,101225.48
2019-02-19T09:34:27.484Z,101220.17
2019-02-19T09:36:55.911Z,101225.89
2019-02-19T09:39:24.335Z,101216.97
2019-02-19T09:41:52.789Z,101224.58
2019-02-19T09:44:21.234Z,101222.94
2019-02-19T09:46:49.661Z,101218.25
2019-02-19T09:49:18.062Z,101226.27
2019-02-19T09:51:46.542Z,101228.90
2019-02-19T09:54:14.952Z,101225.27
2019-02-19T09:56:43.359Z,101228.20
2019-02-19T09:59:11.790Z,101221.58
2019-02-19T10:01:40.658Z,101225.35
2019-02-19T10:04:09.071Z,101222.88
2019-02-19T10:06:37.544Z,101215.39
2019-02-19T10:09:06.410Z,101226.31
2019-02-19T10:11:34.818Z,101234.34
2019-02-19T10:14:03.289Z,101243.27
2019-02-19T10:16:31.716Z,101238.21
2019-02-19T10:19:00.179Z,101233.98
2019-02-19T10:21:28.776Z,101230.53
2019-02-19T10:23:57.181Z,101223.36
2019-02-19T10:26:25.587Z,101221.14
2019-02-19T10:28:54.005Z,101230.30
2019-02-19T10:31:22.406Z,101239.27
2019-02-19T10:33:50.815Z,101231.84
2019-02-19T10:36:19.309Z,101228.83
2019-02-19T10:38:47.710Z,101228.49
2019-02-19T10:41:16.125Z,101226.20
2019-02-19T10:43:44.521Z,101231.77
2019-02-19T10:46:12.944Z,101227.03
2019-02-19T10:48:41.367Z,101226.02
2019-02-19T10:51:09.756Z,101227.16
2019-02-19T10:53:38.177Z,101227.44
2019-02-19T10:56:06.652Z,101236.08
2019-02-19T10:58:35.047Z,101225.02
2019-02-19T11:01:03.447Z,101232.10
2019-02-19T11:03:31.887Z,101225.20
2019-02-19T11:06:00.285Z,101217.77
2019-02-19T11:08:28.715Z,101227.51
2019-02-19T11:10:57.119Z,101233.61
2019-02-19T11:13:25.520Z,101234.89
2019-02-19T11:15:53.946Z,101234.95
2019-02-19T11:18:28.466Z,101230.55
2019-02-19T11:20:52.544Z,101241.91
2019-02-19T11:23:20.943Z,101235.73
2019-02-19T11:25:49.364Z,101232.00
2019-02-19T11:28:17.774Z,101234.76
2019-02-19T11:30:46.196Z,101231.03
2019-02-19T11:33:14.611Z,101229.23
2019-02-19T11:35:42.998Z,101240.38
2019-02-19T11:38:11.419Z,101230.06
2019-02-19T11:40:39.829Z,101225.84
2019-02-19T11:43:08.314Z,100920.55
2019-02-19T11:45:36.707Z,101233.61
2019-02-19T11:48:05.213Z,101241.18
2019-02-19T11:50:33.634Z,101229.65
2019-02-19T11:53:02.035Z,101236.07
2019-02-19T11:55:30.482Z,101232.81
2019-02-19T11:57:58.874Z,101245.15
2019-02-19T12:00:44.292Z,101225.53
2019-02-19T12:03:12.699Z,101230.27
2019-02-19T12:05:41.148Z,101230.39
2019-02-19T12:08:09.572Z,101234.09
2019-02-19T12:10:37.968Z,101234.89
2019-02-19T12:13:06.462Z,101241.66
2019-02-19T12:15:35.604Z,101227.47
2019-02-19T12:18:04.277Z,101228.47
2019-02-19T12:20:32.687Z,101228.47
2019-02-19T12:23:01.102Z,101224.16
2019-02-19T12:25:29.513Z,101231.06
2019-02-19T12:27:57.993Z,101228.16
2019-02-19T12:30:26.436Z,101233.81
2019-02-19T12:32:54.846Z,101225.73
2019-02-19T12:35:23.333Z,101220.65
2019-02-19T12:37:51.836Z,101221.92
2019-02-19T12:40:20.236Z,101217.71
2019-02-19T12:42:48.711Z,101226.63
2019-02-19T12:45:17.202Z,101220.78
2019-02-19T12:47:45.609Z,101225.92
2019-02-19T12:50:18.556Z,101229.00
2019-02-19T12:52:46.955Z,101223.05
2019-02-19T12:55:15.419Z,101217.84
2019-02-19T12:57:43.852Z,101221.09
2019-02-19T13:00:15.026Z,101224.17
2019-02-19T13:02:44.226Z,101227.20
2019-02-19T13:05:14.126Z,101213.69
2019-02-19T13:07:42.661Z,101214.16
2019-02-19T13:10:12.201Z,101227.17
2019-02-19T13:12:40.615Z,101217.55
2019-02-19T13:15:12.107Z,101221.02
2019-02-19T13:17:40.587Z,101225.25
2019-02-19T13:20:14.353Z,101227.55
2019-02-19T13:22:42.853Z,101223.14
2019-02-19T13:25:11.996Z,101217.63
2019-02-19T13:27:40.484Z,101225.70
2019-02-19T13:30:17.429Z,101212.50
2019-02-19T13:32:45.944Z,101221.38
2019-02-19T13:35:14.447Z,101230.61
2019-02-19T13:37:42.928Z,101216.73
2019-02-19T13:40:13.667Z,101218.59
2019-02-19T13:42:42.098Z,101219.27
2019-02-19T13:45:13.464Z,101214.08
2019-02-19T13:47:41.973Z,101220.30
2019-02-19T13:50:13.631Z,101219.83
2019-02-19T13:52:49.927Z,101217.88
2019-02-19T13:55:19.958Z,101214.86
2019-02-19T13:57:48.373Z,101209.73
2019-02-19T14:00:18.600Z,101230.88
2019-02-19T14:02:47.093Z,101206.27
2019-02-19T14:05:15.525Z,101217.28
2019-02-19T14:07:43.936Z,101216.55
2019-02-19T14:10:12.917Z,101213.31
2019-02-19T14:12:41.338Z,101209.38
2019-02-19T14:15:16.045Z,101207.64
2019-02-19T14:17:44.445Z,101221.41
2019-02-19T14:20:14.507Z,101219.27
2019-02-19T14:22:44.562Z,101220.97
2019-02-19T14:25:26.631Z,101229.91
2019-02-19T14:28:12.661Z,101236.84
2019-02-19T14:30:42.771Z,101227.19
2019-02-19T14:33:24.721Z,101236.41
2019-02-19T14:36:09.827Z,101223.87
2019-02-19T14:38:39.867Z,101235.69
2019-02-19T14:41:26.264Z,101240.35
2019-02-19T14:43:56.335Z,101245.39
2019-02-19T14:46:29.255Z,101234.16
2019-02-19T14:49:15.332Z,101249.81
2019-02-19T14:51:57.153Z,101235.73
2019-02-19T14:54:29.674Z,101225.05
2019-02-19T14:57:42.606Z,101228.45
2019-02-19T15:00:28.927Z,101228.17
2019-02-19T15:03:15.159Z,101222.27
2019-02-19T15:06:01.685Z,101225.65
2019-02-19T15:08:31.751Z,101229.47
2019-02-19T15:11:16.945Z,101239.11
2019-02-19T15:13:47.050Z,101239.09
2019-02-19T15:16:17.178Z,101227.74
2019-02-19T15:18:52.942Z,101232.52
2019-02-19T15:21:23.028Z,101225.47
2019-02-19T15:23:56.267Z,101234.90
2019-02-19T15:26:26.348Z,101236.20
2019-02-19T15:29:02.280Z,101224.47
2019-02-19T15:31:34.927Z,101226.12
2019-02-19T15:34:07.021Z,101227.95
2019-02-19T15:36:53.701Z,101227.01
2019-02-19T15:42:24.685Z,101230.02
2019-02-19T15:44:54.747Z,101236.36
2019-02-19T15:47:24.796Z,101232.89
2019-02-19T15:49:57.837Z,101229.41
2019-02-19T15:52:27.887Z,101238.77
2019-02-19T15:54:57.973Z,101240.44
2019-02-19T15:57:33.928Z,101235.15
2019-02-19T16:00:20.271Z,101247.95
2019-02-19T16:02:59.167Z,101240.13
2019-02-19T16:05:31.686Z,101252.91
2019-02-19T16:08:04.743Z,101239.91
2019-02-19T16:10:34.828Z,101247.03
2019-02-19T16:13:08.055Z,101240.87
2019-02-19T16:15:47.028Z,101246.31
2019-02-19T16:18:19.931Z,101246.26
2019-02-19T16:20:50.000Z,101244.12
2019-02-19T16:23:20.058Z,101250.75
2019-02-19T16:26:02.439Z,101250.36
2019-02-19T16:28:35.707Z,101259.25
2019-02-19T16:31:05.829Z,101258.77
2019-02-19T16:33:41.520Z,101259.99
2019-02-19T16:36:20.198Z,101257.76
2019-02-19T16:38:53.045Z,101259.33
2019-02-19T16:41:39.362Z,101260.61
2019-02-19T16:44:15.139Z,101256.67
2019-02-19T16:46:45.190Z,101268.16
2019-02-19T16:49:18.009Z,101260.86
2019-02-19T16:51:50.521Z,101263.77
2019-02-19T16:54:32.315Z,101267.51
2019-02-19T16:57:08.118Z,101270.45
2019-02-19T16:59:53.279Z,101270.73
2019-02-19T17:02:29.187Z,101269.80
2019-02-19T17:05:01.975Z,101264.48
2019-02-19T17:07:31.993Z,101271.27
2019-02-19T17:10:20.403Z,101269.91
2019-02-19T17:12:53.458Z,101271.36
2019-02-19T17:15:23.618Z,101279.75
2019-02-19T17:18:10.085Z,101279.34
2019-02-19T17:20:58.453Z,101283.97
2019-02-19T17:23:37.511Z,101289.87
2019-02-19T17:26:13.498Z,101288.83
2019-02-19T17:28:43.562Z,101295.14
2019-02-19T17:31:25.843Z,101298.08
2019-02-19T17:34:12.262Z,101298.34
2019-02-19T17:36:42.392Z,101294.36
2019-02-19T17:39:18.373Z,101297.22
2019-02-19T17:41:57.334Z,101296.31
2019-02-19T17:44:33.359Z,101300.52
2019-02-19T17:47:14.412Z,101304.73
2019-02-19T17:49:47.212Z,101304.73
2019-02-19T17:52:32.163Z,101309.39
2019-02-19T17:55:08.002Z,101316.94
2019-02-19T17:57:44.104Z,101317.31
2019-02-19T18:00:22.726Z,101318.05
2019-02-19T18:02:58.346Z,101324.40
2019-02-19T18:05:40.683Z,101320.82
2019-02-19T18:08:25.551Z,101331.30
2019-02-19T18:10:55.715Z,101327.72
2019-02-19T18:13:42.035Z,101337.06
2019-02-19T18:16:18.281Z,101338.22
2019-02-19T18:18:53.006Z,101337.20
2019-02-19T18:21:21.575Z,101345.59
2019-02-19T18:23:50.066Z,101348.02
2019-02-19T18:26:18.510Z,101346.54
2019-02-19T18:28:46.899Z,101350.16
2019-02-19T18:31:15.320Z,101354.63
2019-02-19T18:33:43.824Z,101347.67
2019-02-19T18:36:12.897Z,101350.00
2019-02-19T18:38:41.361Z,101353.83
2019-02-19T18:41:09.848Z,101349.05
2019-02-19T18:43:38.293Z,101350.69
2019-02-19T18:46:06.770Z,101355.21
2019-02-19T18:48:35.192Z,101351.39
2019-02-19T18:51:03.666Z,101349.41
2019-02-19T18:53:32.107Z,101355.87
2019-02-19T18:56:00.560Z,101350.78
2019-02-19T18:58:29.127Z,101354.11
2019-02-19T19:00:58.132Z,101354.06
2019-02-19T19:03:26.604Z,101350.23
2019-02-19T19:05:55.108Z,101351.89
2019-02-19T19:08:23.506Z,101354.80
2019-02-19T19:10:51.935Z,101353.39
2019-02-19T19:13:20.414Z,101357.22
2019-02-19T19:15:49.115Z,101356.39
2019-02-19T19:18:19.197Z,101357.72
2019-02-19T19:20:47.971Z,101356.95
2019-02-19T19:23:16.360Z,101363.73
2019-02-19T19:25:44.915Z,101363.31
2019-02-19T19:28:13.409Z,101363.27
2019-02-19T19:30:41.813Z,101364.05
2019-02-19T19:33:10.241Z,101362.31
2019-02-19T19:35:40.343Z,101367.37
2019-02-19T19:38:08.812Z,101364.32
2019-02-19T19:40:37.218Z,101365.59
2019-02-19T19:43:05.674Z,101364.73
2019-02-19T19:45:34.070Z,101366.00
2019-02-19T19:48:02.601Z,101365.14
2019-02-19T19:50:31.080Z,101372.16
2019-02-19T19:52:59.564Z,101372.38
2019-02-19T19:55:27.989Z,101379.94
2019-02-19T19:57:56.457Z,101384.12
2019-02-19T20:00:24.972Z,101380.30
2019-02-19T20:02:53.451Z,101381.16
2019-02-19T20:05:21.867Z,101381.12
2019-02-19T20:07:50.311Z,101385.71
2019-02-19T20:10:18.778Z,101381.66
2019-02-19T20:12:47.214Z,101380.70
2019-02-19T20:15:15.672Z,101387.44
2019-02-19T20:17:44.062Z,101378.77
2019-02-19T20:20:13.000Z,101388.28
2019-02-19T20:22:41.418Z,101385.28
2019-02-19T20:25:14.136Z,101384.05
2019-02-19T20:27:42.591Z,101385.95
2019-02-19T20:30:15.507Z,101385.71
2019-02-19T20:32:44.000Z,101388.20
2019-02-19T20:35:12.556Z,101392.39
2019-02-19T20:37:41.284Z,101392.64
2019-02-19T20:40:11.630Z,101393.25
2019-02-19T20:42:40.143Z,101393.10
2019-02-19T20:45:10.779Z,101398.77
2019-02-19T20:47:39.209Z,101390.47
2019-02-19T20:50:12.697Z,101393.22
2019-02-19T20:52:41.174Z,101402.89
2019-02-19T20:55:11.226Z,101405.55
2019-02-19T20:57:39.662Z,101407.06
2019-02-19T21:00:18.529Z,101405.33
2019-02-19T21:02:47.497Z,101407.12
2019-02-19T21:05:16.035Z,101401.16
2019-02-19T21:07:45.299Z,101404.98
2019-02-19T21:10:22.828Z,101411.23
2019-02-19T21:12:51.260Z,101405.69
2019-02-19T21:15:19.804Z,101411.19
2019-02-19T21:17:48.273Z,101412.83
2019-02-19T21:20:16.890Z,101404.98
2019-02-19T21:22:45.382Z,101404.28
2019-02-19T21:25:13.961Z,101402.98
2019-02-19T21:27:42.353Z,101406.25
2019-02-19T21:30:15.363Z,101408.94
2019-02-19T21:32:43.791Z,101413.42
2019-02-19T21:35:12.263Z,101409.60
2019-02-19T21:37:40.681Z,101411.02
2019-02-19T21:40:11.118Z,101412.61
2019-02-19T21:42:39.548Z,101406.13
2019-02-19T21:45:10.419Z,101407.43
2019-02-19T21:47:38.848Z,101415.17
2019-02-19T21:50:09.511Z,101414.41
2019-02-19T21:52:37.923Z,101413.79
2019-02-19T21:55:08.484Z,101413.64
2019-02-19T21:57:36.991Z,101411.25
2019-02-19T22:00:09.130Z,101414.86
2019-02-19T22:02:37.593Z,101412.31
2019-02-19T22:05:07.349Z,101412.96
2019-02-19T22:07:35.760Z,101402.91
2019-02-19T22:10:05.590Z,101411.55
2019-02-19T22:12:33.995Z,101416.06
2019-02-19T22:15:02.427Z,101411.32
2019-02-19T22:17:30.922Z,101417.47
2019-02-19T22:20:03.181Z,101411.31
2019-02-19T22:22:29.727Z,101412.41
2019-02-19T22:24:58.187Z,101417.98
2019-02-19T22:27:26.598Z,101422.64
2019-02-19T22:29:55.002Z,101423.41
2019-02-19T22:32:23.435Z,101423.69
2019-02-19T22:34:51.916Z,101421.77
2019-02-19T22:37:20.347Z,101426.72
2019-02-19T22:39:48.734Z,101423.34
2019-02-19T22:42:17.231Z,101425.99
2019-02-19T22:44:45.639Z,101424.79
2019-02-19T22:47:14.051Z,101420.66
2019-02-19T22:49:42.458Z,101427.07
2019-02-19T22:52:12.839Z,101426.86
2019-02-19T22:54:42.953Z,101433.75
2019-02-19T22:57:11.440Z,101433.14
2019-02-19T22:59:39.846Z,101432.83
2019-02-19T23:02:10.152Z,101435.94
2019-02-19T23:04:38.574Z,101440.89
2019-02-19T23:07:07.042Z,101442.47
2019-02-19T23:09:35.458Z,101441.41
2019-02-19T23:12:03.849Z,101442.27
2019-02-19T23:14:32.263Z,101438.42
2019-02-19T23:17:00.667Z,101445.83
2019-02-19T23:19:29.070Z,101446.49
2019-02-19T23:21:57.531Z,101447.10
2019-02-19T23:24:25.997Z,101455.25
2019-02-19T23:26:54.434Z,101454.05
2019-02-19T23:29:22.842Z,101451.69
2019-02-19T23:31:51.262Z,101449.08
2019-02-19T23:34:19.687Z,101454.86
2019-02-19T23:36:49.730Z,101451.95
2019-02-19T23:39:18.165Z,101455.79
2019-02-19T23:41:46.573Z,101454.45
2019-02-19T23:44:14.967Z,101457.59
2019-02-19T23:46:44.074Z,101457.99
2019-02-19T23:49:12.566Z,101458.62
2019-02-19T23:51:41.066Z,101453.55
2019-02-19T23:54:09.496Z,101451.74
2019-02-19T23:56:37.920Z,101457.41
2019-02-19T23:59:06.329Z,101450.61
